Skeena-Queen Charlotte A, British Columbia

12:42 AM PST on December 25, 2014 (GMT -0800)
Prince Rupert | Change Station
CLOSE
Current Station
Airport
Location: Prince Rupert,
Elevation: 115 ft
Nearby Weather Stations

Elev 115 ft 54.29 °N, 130.44 °W | Updated 2 minutes ago

Overcast
Overcast
37 °F
Feels Like 32 °F
N
7
Wind Variable Wind from East

Today
High -- | Low -- °F
--% Chance of Precip.
Yesterday
High -- | Low -- °F
Precip. -- in
9:02 AM 4:21 PM
Waxing Crescent, 14% visible
Pressure 30.05 in
Visibility 9.0 miles
Clouds Mostly Cloudy 2200 ft
Mostly Cloudy 4300 ft
Overcast 12000 ft
Windchill 32 °F
Dew Point 37 °F
Humidity 100%
Rainfall 0.00 in
Snow Depth Not available.
UV 0 out of 12
Pollen Not available.
Air Quality Not available.
Flu Activity Not available.
SPECI CYPR 250840Z AUTO 08006KT 9SM BKN022 BKN043 OVC120 03/03 A3005 RMK SLP175

More Conditions Fewer Conditions

Pressure 30.05 in
Visibility 9.0 miles
Clouds Mostly Cloudy 2200 ft
Mostly Cloudy 4300 ft
Overcast 12000 ft
Windchill 32 °F
Dew Point 37 °F
Humidity 100%
Rainfall 0.00 in
Snow Depth Not available.
UV 0 out of 12
Pollen Not available.
Air Quality Not available.
Flu Activity Not available.
SPECI CYPR 250840Z AUTO 08006KT 9SM BKN022 BKN043 OVC120 03/03 A3005 RMK SLP175

More Conditions Fewer Conditions

10-Day Weather Forecast

Almanac

Astronomy

Dec. 25, 2014 Rise Set
Actual Time
Civil Twilight
Nautical Twilight
Astronomical Twilight
Moon
Length of Visible Light
Length of Day
Tomorrow will be .
, % of the Moon is Illuminated

Today's Extremes

Country Highs Country Lows

Community

WunderPhotos

Upload Photos

1,780,250 photos uploaded!

WunderBlogs® & News

Nearby

Air Quality

  Air Quality AQ Index Pollutant
Not available.

Snow Depth

Station Depth Elevation

Earthquake Activity

City Distance Mag. Time & Date
Minimum magnitude displayed is 2.5.

Coastal Water Temperatures

Place Temperature

Nearby Weather Stations